Latest Weather Observations for Clermont Airport

IDQ60801

Issued at 9:52 am EST Tuesday 7 December 2021 (issued every 10 minutes, with the page automatically refreshed every 10 minutes)

About weather observations | Map of weather stations | Latest weather observations for QLD | Other Formats
Station Details ID: 035124 Name: CLERMONT AIRPORT Lat: -22.78 Lon: 147.62 Height: 270.27 m
Data from the previous 72 hours. | See also: Recent months at Clermont Airport
Date/Time
EST
Temp
°C
App
Temp
°C
Dew
Point
°C
Rel
Hum
%
Delta-T
°C
Wind Press
QNH
hPa
Press
MSL
hPa
Rain since
9am
mm
Dir  Spd
km/h
Gust
km/h
Spd
kts
Gust
kts
07/09:30am 27.7 28.2 18.4 57 6.0 N 13 20 7 11 1014.0 1012.2 0.0
07/09:00am 27.2 27.4 17.7 56 6.1 NE 13 20 7 11 1014.2 1012.3 0.0
07/08:30am 26.7 27.7 18.6 61 5.2 NE 11 19 6 10 1014.2 1012.3 0.0
07/08:00am 25.9 26.9 18.6 64 4.7 ENE 11 19 6 10 1014.3 1012.4 0.0
07/07:30am 25.1 27.3 19.2 70 3.8 ENE 6 15 3 8 1014.4 1012.5 0.0
07/07:00am 23.6 25.9 19.5 78 2.7 ESE 6 9 3 5 1014.4 1012.5 0.0
07/06:30am 22.8 25.6 19.6 82 2.1 ESE 4 7 2 4 1014.0 1012.2 0.0
07/06:00am 21.4 24.9 19.5 89 1.2 CALM 0 2 0 1 1014.2 1012.3 0.0
07/05:30am 21.1 24.1 19.2 89 1.2 ESE 2 6 1 3 1014.0 1012.2 0.0
07/05:00am 21.4 23.9 19.1 87 1.5 SE 4 9 2 5 1014.0 1012.2 0.0
07/04:30am 21.5 23.7 19.1 86 1.5 SSE 6 9 3 5 1013.9 1012.1 0.0
07/04:12am 21.5 23.4 18.9 85 1.7 SSE 7 13 4 7 1013.8 1012.0 0.0
07/04:00am 21.5 22.9 18.7 84 1.8 SSE 9 17 5 9 1013.6 1011.8 0.0
07/03:30am 21.7 23.1 18.7 83 1.9 SSE 9 17 5 9 1013.2 1011.4 0.0
07/03:00am 22.1 23.1 18.7 81 2.2 SSE 11 19 6 10 1012.8 1011.0 0.0
07/02:30am 22.8 25.0 19.6 82 2.1 SE 7 11 4 6 1012.7 1010.9 0.0
07/02:00am 23.0 25.1 19.4 80 2.3 SE 7 13 4 7 1012.8 1011.0 0.0
07/01:30am 22.6 25.1 19.0 80 2.3 SE 4 7 2 4 1012.9 1011.1 0.0
07/01:00am 22.7 25.1 18.9 79 2.4 E 4 6 2 3 1012.9 1011.1 0.0
07/12:30am 23.3 26.6 19.0 77 2.8 CALM 0 4 0 2 1013.2 1011.4 0.0
07/12:00am 23.6 26.0 18.7 74 3.1 E 4 7 2 4 1013.0 1011.2 0.0
 
Date/Time
EST
Temp
°C
App
Temp
°C
Dew
Point
°C
Rel
Hum
%
Delta-T
°C
Wind Press
QNH
hPa
Press
MSL
hPa
Rain since
9am
mm
Dir  Spd
km/h
Gust
km/h
Spd
kts
Gust
kts
06/11:30pm 24.1 26.0 18.5 71 3.6 E 6 15 3 8 1013.3 1011.5 0.0
06/11:00pm 24.5 26.9 18.7 70 3.7 E 4 9 2 5 1013.2 1011.4 0.0
06/10:30pm 24.8 27.1 18.5 68 4.0 ENE 4 9 2 5 1013.1 1011.3 0.0
06/10:00pm 25.3 27.2 18.5 66 4.4 E 6 13 3 7 1012.8 1011.0 0.0
06/09:30pm 25.8 27.5 18.5 64 4.7 ENE 7 17 4 9 1012.8 1011.0 0.0
06/09:00pm 26.5 27.8 18.4 61 5.2 ENE 9 17 5 9 1012.2 1010.4 0.0
06/08:30pm 27.1 29.1 17.8 56 5.9 ESE 4 7 2 4 1011.4 1009.5 0.0
06/08:00pm 27.7 29.3 17.8 54 6.3 SE 6 9 3 5 1011.5 1009.6 0.0
06/07:30pm 27.9 29.6 18.0 55 6.4 SSE 6 9 3 5 1011.3 1009.4 0.0
06/07:00pm 28.3 30.0 18.1 54 6.6 SSE 6 7 3 4 1011.2 1009.3 0.0
06/06:30pm 28.9 30.4 17.7 50 7.2 SSE 6 7 3 4 1010.9 1009.0 0.0
06/06:00pm 29.9 31.1 17.4 47 8.0 SSE 7 9 4 5 1010.5 1008.6 0.0
06/05:30pm 30.1 30.9 17.2 46 8.2 SE 9 13 5 7 1010.1 1008.3 0.0
06/05:00pm 30.5 31.6 17.9 47 8.1 SE 9 15 5 8 1010.0 1008.2 0.0
06/04:30pm 30.7 30.9 17.7 45 8.4 S 13 22 7 12 1009.9 1008.1 0.0
06/04:00pm 30.4 30.7 17.8 46 8.1 S 13 19 7 10 1009.9 1008.1 0.0
06/03:30pm 30.2 30.8 17.6 46 8.1 S 11 19 6 10 1010.3 1008.4 0.0
06/03:00pm 30.3 31.1 17.4 46 8.3 S 9 15 5 8 1010.6 1008.7 0.0
06/02:30pm 30.2 30.7 16.6 44 8.6 SSE 9 13 5 7 1010.8 1008.9 0.0
06/02:00pm 30.2 31.1 16.2 42 8.8 ESE 6 9 3 5 1011.2 1009.3 0.0
06/01:30pm 30.2 31.7 18.0 48 7.9 S 7 13 4 7 1011.6 1009.8 0.0
06/01:00pm 30.0 31.3 18.4 49 7.5 S 9 15 5 8 1011.9 1010.1 0.0
06/12:30pm 29.1 30.0 17.6 50 7.4 S 9 13 5 7 1012.3 1010.5 0.0
06/12:00pm 28.4 30.0 18.2 54 6.6 SSW 7 11 4 6 1012.7 1010.9 0.0
06/11:30am 28.5 30.4 17.7 52 6.9 N 4 11 2 6 1012.9 1011.1 0.0
06/11:00am 28.7 30.5 18.2 53 6.8 E 6 13 3 7 1013.2 1011.4 0.0
06/10:30am 28.4 29.6 18.2 54 6.6 ENE 9 15 5 8 1013.4 1011.6 0.0
06/10:00am 28.3 30.0 18.4 55 6.4 ESE 7 13 4 7 1013.5 1011.7 0.0
06/09:30am 27.7 28.7 17.8 54 6.3 E 9 22 5 12 1013.6 1011.8 0.0
06/09:00am 26.7 27.2 17.5 57 5.8 E 11 20 6 11 1013.5 1011.7 0.0
06/08:30am 26.9 28.2 18.5 60 5.4 E 9 20 5 11 1013.6 1011.8 0.0
06/08:00am 24.4 26.3 18.6 70 3.7 NE 6 11 3 6 1013.8 1012.0 0.0
06/07:30am 23.9 25.1 18.3 71 3.6 E 9 15 5 8 1013.5 1011.7 0.0
06/07:00am 23.7 25.2 19.0 75 3.0 SE 9 13 5 7 1013.2 1011.4 0.0
06/06:30am 22.6 24.9 18.6 78 2.5 ESE 4 7 2 4 1013.2 1011.4 0.0
06/06:00am 22.1 24.5 18.7 81 2.2 S 4 6 2 3 1013.0 1011.2 0.0
06/05:30am 21.1 23.8 18.7 86 1.5 SSE 2 6 1 3 1012.5 1010.7 0.0
06/05:00am 21.2 23.7 18.2 83 1.9 SSE 2 4 1 2 1012.2 1010.4 0.0
06/04:30am 21.7 24.2 18.1 80 2.3 SE 2 4 1 2 1011.9 1010.1 0.0
06/04:00am 21.9 24.0 18.1 79 2.4 E 4 6 2 3 1011.6 1009.8 0.0
06/03:30am 21.9 24.4 18.1 79 2.4 ENE 2 4 1 2 1011.2 1009.3 0.0
06/03:00am 22.0 24.1 18.0 78 2.5 ENE 4 7 2 4 1011.2 1009.3 0.0
06/02:30am 22.5 24.7 17.4 73 3.2 ESE 2 6 1 3 1011.4 1009.5 0.0
06/02:00am 22.7 24.3 17.8 74 3.1 ESE 6 9 3 5 1011.2 1009.3 0.0
06/01:30am 22.9 24.6 18.0 74 3.1 E 6 9 3 5 1011.1 1009.2 0.0
06/01:00am 23.3 25.4 18.0 72 3.4 E 4 6 2 3 1011.5 1009.6 0.0
06/12:30am 23.9 25.0 17.9 69 3.8 ENE 9 17 5 9 1011.6 1009.8 0.0
06/12:00am 24.2 24.7 17.4 65 4.3 ENE 11 19 6 10 1011.9 1010.1 0.0
 
Date/Time
EST
Temp
°C
App
Temp
°C
Dew
Point
°C
Rel
Hum
%
Delta-T
°C
Wind Press
QNH
hPa
Press
MSL
hPa
Rain since
9am
mm
Dir  Spd
km/h
Gust
km/h
Spd
kts
Gust
kts
05/11:30pm 24.6 24.6 17.3 64 4.6 NE 13 24 7 13 1012.2 1010.4 0.0
05/11:00pm 25.2 24.4 16.1 57 5.6 NE 15 30 8 16 1012.3 1010.5 0.0
05/10:30pm 26.4 24.6 12.1 41 8.3 ENE 13 24 7 13 1011.7 1009.9 0.0
05/10:00pm 26.9 26.3 12.2 40 8.6 NE 7 11 4 6 1011.2 1009.3 0.0
05/09:30pm 27.8 28.2 16.4 50 7.1 NE 9 17 5 9 1010.7 1008.8 0.0
05/09:00pm 27.5 29.3 18.2 57 6.0 ENE 6 9 3 5 1010.4 1008.5 0.0
05/08:30pm 27.9 30.6 18.6 57 6.0 SE 2 4 1 2 1010.3 1008.4 0.0
05/08:00pm 28.5 31.3 18.9 56 6.3 S 2 6 1 3 1009.8 1008.0 0.0
05/07:30pm 29.3 31.5 18.4 51 7.1 SSE 4 6 2 3 1009.6 1007.8 0.0
05/07:00pm 29.8 31.9 18.9 52 7.1 S 6 7 3 4 1009.1 1007.3 0.0
05/06:30pm 30.3 32.1 18.4 49 7.7 SSE 6 7 3 4 1009.0 1007.2 0.0
05/06:00pm 30.8 32.6 18.2 47 8.2 S 6 9 3 5 1008.8 1007.0 0.0
05/05:30pm 31.9 32.5 15.8 38 10.1 SE 7 9 4 5 1008.1 1006.2 0.0
05/05:00pm 32.2 32.5 16.1 38 10.2 SE 9 15 5 8 1008.0 1006.1 0.0
05/04:30pm 33.3 33.4 16.6 36 10.7 SSE 11 17 6 9 1007.9 1006.0 0.0
05/04:00pm 33.4 34.1 17.1 37 10.5 SE 9 19 5 10 1008.1 1006.2 0.0
05/03:30pm 33.3 34.6 17.5 39 10.2 SSE 7 17 4 9 1008.4 1006.6 0.0
05/03:00pm 33.3 34.3 18.6 41 9.7 SE 11 20 6 11 1008.7 1006.9 0.0
05/02:30pm 33.2 34.6 18.6 42 9.6 SSE 9 17 5 9 1009.0 1007.2 0.0
05/02:00pm 32.3 34.4 18.1 42 9.3 SSE 4 9 2 5 1009.3 1007.5 0.0
05/01:30pm 31.8 33.8 19.1 47 8.4 ESE 7 13 4 7 1009.6 1007.8 0.0
05/01:00pm 32.3 34.3 19.9 48 8.3 E 9 20 5 11 1010.1 1008.3 0.0
05/12:30pm 32.4 33.8 20.3 48 8.1 SSE 13 20 7 11 1010.7 1008.8 0.0
05/12:00pm 31.9 34.1 20.5 51 7.7 ESE 9 15 5 8 1011.1 1009.2 0.0
05/11:30am 30.8 33.6 20.4 54 7.0 SE 6 9 3 5 1011.5 1009.6 0.0
05/11:00am 31.1 33.3 20.4 53 7.2 SE 9 19 5 10 1011.9 1010.1 0.0
05/10:30am 30.9 32.6 20.2 53 7.1 SE 11 19 6 10 1012.2 1010.4 0.0
05/10:00am 30.1 31.8 20.1 55 6.7 SSE 11 17 6 9 1012.5 1010.7 0.0
05/09:30am 29.5 32.5 20.1 57 6.2 SE 4 9 2 5 1012.6 1010.8 0.0
05/09:00am 29.0 32.2 20.4 59 5.7 SE 4 6 2 3 1012.6 1010.8 0.0
05/08:30am 28.1 31.3 20.4 63 5.1 ESE 4 6 2 3 1012.6 1010.8 0.0
05/08:00am 27.2 30.0 20.5 67 4.4 ENE 6 7 3 4 1012.5 1010.7 0.0
05/07:30am 26.1 29.5 20.2 70 3.9 S 2 6 1 3 1012.5 1010.7 0.0
05/07:00am 24.9 27.6 19.5 72 3.5 S 4 6 2 3 1012.2 1010.4 0.0
05/06:30am 23.9 26.5 19.2 75 3.0 SE 4 6 2 3 1011.9 1010.1 0.0
05/06:00am 22.7 25.4 19.5 82 2.1 SE 4 6 2 3 1011.8 1010.0 0.0
05/05:30am 21.6 24.2 19.2 86 1.5 ESE 4 7 2 4 1011.4 1009.5 0.0
05/05:00am 21.4 24.6 20.6 95 0.5 ESE 4 4 2 2 1010.9 1009.0 0.0
05/04:30am 21.7 25.5 20.2 91 1.0 CALM 0 0 0 0 1010.3 1008.4 0.0
05/04:00am 21.7 24.9 20.5 93 0.8 W 4 6 2 3 1009.8 1008.0 0.0
05/03:30am 21.9 25.9 20.5 92 0.9 CALM 0 0 0 0 1009.8 1008.0 0.0
05/03:00am 22.3 26.5 20.9 92 0.9 CALM 0 0 0 0 1009.9 1008.1 0.0
05/02:30am 22.4 26.5 20.7 90 1.1 CALM 0 0 0 0 1009.9 1008.1 0.0
05/02:00am 23.1 27.0 20.4 85 1.8 CALM 0 0 0 0 1010.0 1008.2 0.0
05/01:30am 23.3 27.1 20.2 83 2.0 CALM 0 0 0 0 1010.0 1008.2 0.0
05/01:00am 23.5 26.7 19.8 80 2.4 WSW 2 6 1 3 1010.4 1008.5 0.0
05/12:30am 24.3 27.8 19.6 75 3.1 CALM 0 0 0 0 1010.6 1008.7 0.0
05/12:00am 24.5 26.9 19.6 74 3.2 WNW 6 9 3 5 1010.7 1008.8 0.0
 
Date/Time
EST
Temp
°C
App
Temp
°C
Dew
Point
°C
Rel
Hum
%
Delta-T
°C
Wind Press
QNH
hPa
Press
MSL
hPa
Rain since
9am
mm
Dir  Spd
km/h
Gust
km/h
Spd
kts
Gust
kts
04/11:30pm 24.9 26.7 19.5 72 3.5 NE 9 17 5 9 1010.7 1008.8 0.0
04/11:00pm 25.5 28.0 19.9 71 3.7 E 6 7 3 4 1011.5 1009.6 0.0
04/10:30pm 27.0 28.4 18.6 60 5.4 S 9 20 5 11 1011.7 1009.9 0.0
04/10:06pm 28.1 26.6 18.5 56 6.2 SSW 24 39 13 21 1011.9 1010.1 0.0
04/10:00pm 27.9 28.6 18.9 58 5.9 S 13 28 7 15 1011.9 1010.1 0.0
04/09:51pm 27.3 30.8 20.4 66 4.6 SSE 2 7 1 4 1011.4 1009.5 0.0
04/09:30pm 27.8 30.4 17.6 53 6.5 CALM 0 0 0 0 1011.3 1009.4 0.0
04/09:00pm 27.3 30.1 18.9 60 5.5 NNE 2 6 1 3 1011.0 1009.1 0.0
04/08:30pm 27.3 29.7 18.9 60 5.5 NE 4 6 2 3 1010.6 1008.7 0.0
04/08:00pm 27.2 31.1 20.3 66 4.6 CALM 0 0 0 0 1010.1 1008.3 0.0
04/07:30pm 27.4 30.7 20.0 64 4.9 E 2 6 1 3 1010.0 1008.2 0.0
04/07:00pm 30.6 32.5 17.7 46 8.3 S 4 6 2 3 1009.8 1008.0 0.0
04/06:30pm 31.6 32.9 17.1 41 9.3 S 6 9 3 5 1009.4 1007.6 0.0
04/06:00pm 32.8 33.0 15.8 36 10.8 SSE 9 15 5 8 1009.1 1007.3 0.0
04/05:30pm 33.3 32.9 15.3 34 11.3 SSE 11 19 6 10 1008.9 1007.1 0.0
04/05:00pm 33.4 34.0 16.7 36 10.7 SE 9 17 5 9 1008.8 1007.0 0.0
04/04:30pm 33.8 34.1 17.1 37 10.8 S 11 20 6 11 1008.9 1007.1 0.0
04/04:00pm 33.6 33.3 16.5 36 11.0 SSE 13 26 7 14 1009.2 1007.4 0.0
04/03:30pm 33.5 33.7 17.6 38 10.3 SSE 13 22 7 12 1009.5 1007.7 0.0
04/03:00pm 33.4 34.1 18.0 40 10.1 SSE 11 20 6 11 1009.9 1008.1 0.0
04/02:30pm 33.0 33.9 17.6 40 10.0 SSE 9 15 5 8 1010.3 1008.4 0.0
04/02:00pm 32.8 33.1 17.0 38 10.2 S 11 20 6 11 1010.7 1008.8 0.0
04/01:30pm 32.7 33.8 18.1 42 9.5 SE 9 19 5 10 1011.1 1009.2 0.0
04/01:00pm 32.2 34.7 19.1 45 8.7 SW 4 17 2 9 1011.7 1009.9 0.0
04/12:30pm 31.6 32.7 18.9 47 8.3 SE 11 17 6 9 1012.2 1010.4 0.0
04/12:00pm 31.4 33.6 19.1 48 8.1 SSE 6 17 3 9 1012.6 1010.8 0.0
04/11:30am 31.0 32.5 19.7 51 7.5 SSE 11 17 6 9 1013.0 1011.2 0.0
04/11:00am 30.5 33.4 20.7 55 6.6 SSE 6 19 3 10 1013.6 1011.8 0.0
04/10:30am 29.8 32.5 20.6 57 6.2 SSE 7 15 4 8 1014.0 1012.2 0.0
04/10:00am 28.8 31.6 20.8 62 5.4 S 7 15 4 8 1014.4 1012.5 0.0

Other formats

Comma delimited format used in spreadsheet applications
http://www.bom.gov.au/fwo/IDQ60801/IDQ60801.94395.axf

JavaScript Object Notation format (JSON) in row-major order
http://www.bom.gov.au/fwo/IDQ60801/IDQ60801.94395.json

Data quality

Most of these data are generated automatically and are frequently updated. Quality checks on data are not normally performed. It is possible for incorrect values to appear. Refer to information at About Latest Weather Observations and please check the disclaimer before using these data.